Penn State University, Pennsylvania
Current Conditions -  °F | °C
As of 4:53 PM on Monday 24 Nov 2014 (Local Time) from KUNV Reporting Station
Broken Clouds Broken Clouds  
Wind Chill: 63°   Ceiling: 9500
Heat Index: 63°   Visibility: 10mi
Dew Point: 48°   Wind: 12mph
Humidity: 59%   Direction: 230°SW
Pressure: 29.53"   Gusts: NA
Location:  40.8092°N, 77.8868°W
Report Text: KUNV 242153Z 23010KT 10SM BKN095 17/09 A2953
Loading
Personal Weather Stations






























Interactive Weather Map New forecast layout! Learn more

10-Day Weather Forecast

Advertisements
Track Severe Weather on mobile